createdAt,value
2018-04-06T00:00:39.171Z,3.94
2018-04-06T00:01:39.164Z,3.87
2018-04-06T00:02:39.152Z,3.79
2018-04-06T00:03:39.185Z,3.76
2018-04-06T00:04:39.153Z,3.79
2018-04-06T00:05:39.125Z,3.84
2018-04-06T00:06:39.126Z,3.79
2018-04-06T00:07:39.105Z,3.86
2018-04-06T00:08:39.097Z,3.83
2018-04-06T00:09:39.092Z,3.84
2018-04-06T00:10:39.082Z,3.86
2018-04-06T00:11:39.068Z,3.80
2018-04-06T00:12:39.062Z,3.88
2018-04-06T00:13:39.050Z,3.83
2018-04-06T00:14:39.042Z,3.79
2018-04-06T00:15:39.033Z,3.86
2018-04-06T00:16:39.022Z,3.87
2018-04-06T00:17:39.055Z,3.86
2018-04-06T00:18:39.006Z,3.88
2018-04-06T00:19:38.996Z,3.83
2018-04-06T00:20:38.986Z,3.84
2018-04-06T00:21:38.977Z,3.88
2018-04-06T00:22:38.967Z,3.86
2018-04-06T00:23:38.957Z,3.83
2018-04-06T00:24:38.951Z,3.83
2018-04-06T00:25:38.939Z,3.73
2018-04-06T00:26:38.930Z,3.75
2018-04-06T00:27:38.925Z,3.76
2018-04-06T00:28:38.917Z,3.79
2018-04-06T00:29:38.905Z,3.80
2018-04-06T00:30:38.895Z,3.75
2018-04-06T00:31:38.895Z,3.80
2018-04-06T00:32:38.874Z,3.75
2018-04-06T00:33:38.866Z,3.72
2018-04-06T00:34:38.854Z,3.80
2018-04-06T00:35:38.845Z,3.79
2018-04-06T00:36:38.852Z,3.75
2018-04-06T00:37:38.838Z,3.75
2018-04-06T00:38:38.817Z,3.68
2018-04-06T00:39:38.807Z,3.73
2018-04-06T00:40:38.798Z,3.70
2018-04-06T00:41:38.789Z,3.76
2018-04-06T00:42:38.779Z,3.72
2018-04-06T00:43:38.769Z,3.58
2018-04-06T00:44:38.780Z,3.65
2018-04-06T00:45:38.754Z,3.66
2018-04-06T00:46:38.742Z,3.58
2018-04-06T00:47:38.732Z,3.65
2018-04-06T00:48:38.724Z,3.61
2018-04-06T00:49:38.713Z,3.62
2018-04-06T00:50:38.704Z,3.58
2018-04-06T00:51:38.693Z,3.66
2018-04-06T00:52:38.707Z,3.65
2018-04-06T00:53:38.679Z,3.69
2018-04-06T00:54:38.667Z,3.62
2018-04-06T00:55:38.657Z,3.60
2018-04-06T00:56:38.648Z,3.69
2018-04-06T00:57:38.638Z,3.69
2018-04-06T00:58:38.629Z,3.66
2018-04-06T00:59:38.618Z,3.60
2018-04-06T01:00:38.625Z,3.66
2018-04-06T01:01:38.600Z,3.60
2018-04-06T01:02:38.589Z,3.66
2018-04-06T01:03:38.580Z,3.66
2018-04-06T01:04:38.571Z,3.61
2018-04-06T01:05:38.563Z,3.61
2018-04-06T01:06:38.553Z,3.68
2018-04-06T01:07:38.543Z,3.66
2018-04-06T01:08:38.557Z,3.66
2018-04-06T01:09:38.524Z,3.61
2018-04-06T01:10:38.515Z,3.61
2018-04-06T01:11:38.506Z,3.61
2018-04-06T01:12:38.496Z,3.50
2018-04-06T01:13:38.486Z,3.69
2018-04-06T01:14:38.478Z,3.52
2018-04-06T01:15:38.466Z,3.51
2018-04-06T01:16:38.477Z,3.66
2018-04-06T01:17:38.450Z,3.62
2018-04-06T01:18:38.440Z,3.68
2018-04-06T01:19:38.431Z,3.65
2018-04-06T01:20:38.420Z,3.69
2018-04-06T01:21:38.410Z,3.68
2018-04-06T01:22:38.402Z,3.61
2018-04-06T01:23:38.390Z,3.65
2018-04-06T01:24:38.384Z,3.73
2018-04-06T01:25:38.375Z,3.70
2018-04-06T01:26:38.364Z,3.72
2018-04-06T01:27:38.354Z,3.68
2018-04-06T01:28:38.394Z,3.75
2018-04-06T01:29:38.335Z,3.72
2018-04-06T01:30:38.328Z,3.68
2018-04-06T01:31:38.318Z,3.68
2018-04-06T01:32:38.575Z,3.79
2018-04-06T01:33:38.298Z,3.72
2018-04-06T01:34:38.288Z,3.78
2018-04-06T01:35:38.279Z,3.87
2018-04-06T01:36:38.269Z,3.87
2018-04-06T01:37:38.263Z,3.83
2018-04-06T01:38:38.252Z,3.78
2018-04-06T01:39:38.241Z,3.78
2018-04-06T01:40:38.254Z,3.80
2018-04-06T01:41:38.224Z,3.88
2018-04-06T01:42:38.216Z,3.83
2018-04-06T01:43:38.210Z,3.86
2018-04-06T01:44:38.195Z,3.93
2018-04-06T01:45:38.189Z,3.98
2018-04-06T01:46:38.179Z,3.83
2018-04-06T01:47:38.170Z,3.88
2018-04-06T01:48:38.175Z,3.91
2018-04-06T01:49:38.150Z,3.76
2018-04-06T01:50:38.142Z,3.75
2018-04-06T01:51:38.382Z,3.78
2018-04-06T01:52:38.124Z,3.75
2018-04-06T01:53:38.113Z,3.68
2018-04-06T01:54:38.104Z,3.69
2018-04-06T01:55:38.095Z,3.68
2018-04-06T01:56:38.373Z,3.75
2018-04-06T01:57:38.077Z,3.58
2018-04-06T01:58:38.071Z,3.58
2018-04-06T01:59:38.059Z,3.75
2018-04-06T02:00:38.051Z,3.62
2018-04-06T02:01:38.046Z,3.68
2018-04-06T02:02:38.032Z,3.69
2018-04-06T02:03:38.023Z,3.72
2018-04-06T02:04:38.015Z,3.70
2018-04-06T02:05:38.006Z,3.69
2018-04-06T02:06:37.997Z,3.79
2018-04-06T02:07:37.991Z,3.73
2018-04-06T02:08:37.993Z,3.70
2018-04-06T02:09:37.968Z,3.62
2018-04-06T02:10:37.959Z,3.62
2018-04-06T02:11:37.954Z,3.65
2018-04-06T02:12:38.394Z,3.52
2018-04-06T02:13:37.938Z,3.54
2018-04-06T02:14:37.940Z,3.54
2018-04-06T02:15:37.914Z,3.52
2018-04-06T02:16:37.908Z,3.65
2018-04-06T02:17:37.900Z,3.65
2018-04-06T02:18:37.894Z,3.51
2018-04-06T02:19:37.879Z,3.62
2018-04-06T02:20:37.886Z,3.55
2018-04-06T02:21:37.860Z,3.55
2018-04-06T02:22:37.862Z,3.60
2018-04-06T02:23:37.842Z,3.65
2018-04-06T02:24:37.844Z,3.66
2018-04-06T02:25:37.825Z,3.62
2018-04-06T02:26:37.815Z,3.58
2018-04-06T02:27:37.806Z,3.54
2018-04-06T02:28:37.822Z,3.52
2018-04-06T02:29:37.787Z,3.48
2018-04-06T02:30:37.781Z,3.57
2018-04-06T02:31:37.770Z,3.51
2018-04-06T02:32:37.764Z,3.51
2018-04-06T02:33:37.759Z,3.58
2018-04-06T02:34:37.743Z,3.45
2018-04-06T02:35:37.734Z,3.43
2018-04-06T02:36:37.757Z,3.45
2018-04-06T02:37:37.722Z,3.42
2018-04-06T02:38:37.708Z,3.43
2018-04-06T02:39:37.698Z,3.39
2018-04-06T02:40:37.713Z,3.32
2018-04-06T02:41:37.683Z,3.47
2018-04-06T02:42:37.670Z,3.39
2018-04-06T02:43:37.698Z,3.32
2018-04-06T02:44:38.005Z,3.31
2018-04-06T02:45:37.642Z,3.47
2018-04-06T02:46:37.632Z,3.40
2018-04-06T02:47:37.621Z,3.45
2018-04-06T02:48:37.614Z,3.43
2018-04-06T02:49:37.606Z,3.40
2018-04-06T02:50:37.598Z,3.45
2018-04-06T02:51:37.592Z,3.50
2018-04-06T02:52:37.767Z,3.47
2018-04-06T02:53:37.568Z,3.60
2018-04-06T02:54:37.559Z,3.50
2018-04-06T02:55:37.550Z,3.55
2018-04-06T02:56:37.540Z,3.54
2018-04-06T02:57:37.530Z,3.43
2018-04-06T02:58:37.521Z,3.51
2018-04-06T02:59:37.513Z,3.48
2018-04-06T03:00:38.011Z,3.57
2018-04-06T03:01:37.499Z,3.51
2018-04-06T03:02:37.485Z,3.48
2018-04-06T03:03:37.728Z,3.40
2018-04-06T03:04:37.466Z,3.31
2018-04-06T03:05:37.456Z,3.35
2018-04-06T03:06:37.450Z,3.36
2018-04-06T03:07:37.437Z,3.35
2018-04-06T03:08:37.684Z,3.31
2018-04-06T03:09:37.417Z,3.39
2018-04-06T03:10:37.418Z,3.29
2018-04-06T03:11:37.399Z,3.42
2018-04-06T03:12:37.389Z,3.40
2018-04-06T03:13:37.381Z,3.39
2018-04-06T03:14:37.371Z,3.31
2018-04-06T03:15:37.365Z,3.35
2018-04-06T03:16:37.352Z,3.42
2018-04-06T03:17:37.344Z,3.36
2018-04-06T03:18:37.334Z,3.42
2018-04-06T03:19:37.324Z,3.24
2018-04-06T03:20:37.314Z,3.24
2018-04-06T03:21:37.305Z,3.23
2018-04-06T03:22:37.295Z,3.24
2018-04-06T03:23:37.284Z,3.23
2018-04-06T03:24:37.276Z,3.31
2018-04-06T03:25:37.267Z,3.33
2018-04-06T03:26:37.258Z,3.26
2018-04-06T03:27:37.247Z,3.36
2018-04-06T03:28:37.238Z,3.35
2018-04-06T03:29:37.231Z,3.28
2018-04-06T03:30:37.219Z,3.36
2018-04-06T03:31:37.211Z,3.36
2018-04-06T03:32:37.202Z,3.33
2018-04-06T03:33:37.190Z,3.28
2018-04-06T03:34:37.180Z,3.23
2018-04-06T03:35:37.170Z,3.15
2018-04-06T03:36:37.162Z,3.17
2018-04-06T03:37:37.153Z,3.14
2018-04-06T03:38:37.143Z,3.21
2018-04-06T04:39:46.038Z,3.08
2018-04-06T04:40:45.779Z,3.06
2018-04-06T04:41:45.768Z,2.99
2018-04-06T04:42:45.760Z,3.23
2018-04-06T04:43:45.757Z,3.11
2018-04-06T04:44:45.738Z,2.99
2018-04-06T04:45:45.733Z,3.11
2018-04-06T04:46:45.808Z,3.08
2018-04-06T04:47:45.709Z,3.11
2018-04-06T04:48:45.699Z,3.03
2018-04-06T04:49:45.689Z,2.96
2018-04-06T04:50:45.680Z,3.05
2018-04-06T04:51:45.671Z,3.05
2018-04-06T04:52:45.661Z,3.08
2018-04-06T04:53:45.648Z,3.11
2018-04-06T04:54:45.640Z,3.06
2018-04-06T04:55:45.636Z,3.08
2018-04-06T04:56:45.620Z,2.90
2018-04-06T04:57:45.609Z,3.06
2018-04-06T04:58:45.600Z,3.05
2018-04-06T04:59:45.590Z,2.99
2018-04-06T05:00:45.584Z,2.97
2018-04-06T05:01:45.569Z,3.06
2018-04-06T06:22:45.027Z,6.55
2018-04-06T06:23:45.018Z,6.74
2018-04-06T06:24:45.011Z,7.13
2018-04-06T06:25:45.004Z,7.03
2018-04-06T06:26:44.998Z,7.15
2018-04-06T06:27:44.991Z,7.28
2018-04-06T06:28:44.982Z,7.15
2018-04-06T06:29:44.978Z,7.23
2018-04-06T06:30:44.970Z,7.37
2018-04-06T06:31:44.963Z,7.57
2018-04-06T06:32:44.956Z,7.82
2018-04-06T06:33:44.952Z,7.57
2018-04-06T06:34:44.944Z,7.74
2018-04-06T06:35:44.936Z,7.80
2018-04-06T06:36:44.931Z,7.77
2018-04-06T06:37:44.923Z,7.67
2018-04-06T06:38:44.916Z,7.82
2018-04-06T06:39:44.911Z,7.85
2018-04-06T06:40:44.905Z,7.42
2018-04-06T06:41:44.902Z,7.55
2018-04-06T06:42:44.894Z,7.82
2018-04-06T06:43:44.885Z,7.82
2018-04-06T06:44:44.882Z,7.40
2018-04-06T06:45:44.875Z,7.10
2018-04-06T06:46:44.871Z,6.80
2018-04-06T06:47:44.864Z,6.51
2018-04-06T06:48:44.858Z,6.62
2018-04-06T06:49:44.852Z,6.94
2018-04-06T06:50:45.051Z,7.25
2018-04-06T06:52:53.217Z,7.49
2018-04-06T06:53:53.210Z,7.61
2018-04-06T06:54:53.210Z,7.60
2018-04-06T06:55:53.196Z,7.95
2018-04-06T06:59:19.026Z,8.63
2018-04-06T07:00:18.872Z,8.68
2018-04-06T07:01:18.865Z,8.70
2018-04-06T07:02:18.859Z,8.84
2018-04-06T07:03:18.856Z,9.14
2018-04-06T07:04:18.893Z,9.17
2018-04-06T07:05:18.846Z,8.96
2018-04-06T07:06:18.841Z,8.86
2018-04-06T07:07:18.870Z,8.70
2018-04-06T07:08:18.867Z,8.43
2018-04-06T07:09:18.831Z,8.38
2018-04-06T07:10:18.822Z,8.23
2018-04-06T07:11:18.820Z,8.37
2018-04-06T07:12:18.814Z,8.52
2018-04-06T07:13:18.810Z,8.83
2018-04-06T07:14:18.803Z,8.94
2018-04-06T07:15:18.802Z,9.35
2018-04-06T07:16:18.796Z,10.05
2018-04-06T07:17:18.791Z,10.59
2018-04-06T07:18:18.787Z,11.15
2018-04-06T07:19:18.787Z,11.52
2018-04-06T07:20:18.782Z,12.39
2018-04-06T07:24:28.691Z,13.20
2018-04-06T07:29:42.889Z,14.10
2018-04-06T07:30:39.258Z,14.45
2018-04-06T07:32:41.957Z,14.43
2018-04-06T07:33:31.693Z,14.68
2018-04-06T07:34:31.695Z,14.29
2018-04-06T07:35:32.907Z,13.87
2018-04-06T07:36:31.694Z,13.79
2018-04-06T07:38:29.141Z,13.62
2018-04-06T07:40:11.555Z,12.90
2018-04-06T07:41:11.553Z,12.78
2018-04-06T07:48:43.894Z,11.55
2018-04-06T07:49:43.893Z,11.25
2018-04-06T07:55:03.149Z,13.17
2018-04-06T07:56:02.899Z,13.19
2018-04-06T07:57:02.971Z,13.10
2018-04-06T07:58:02.904Z,12.38
2018-04-06T08:00:28.040Z,13.07
2018-04-06T08:01:30.566Z,13.75
2018-04-06T08:04:20.246Z,14.35
2018-04-06T08:05:17.627Z,15.01
2018-04-06T08:07:20.390Z,14.57
2018-04-06T08:08:20.090Z,14.62
2018-04-06T08:11:04.955Z,14.83
2018-04-06T08:12:04.957Z,15.36
2018-04-06T08:13:05.567Z,15.60
2018-04-06T08:18:13.813Z,12.64
2018-04-06T08:23:51.861Z,11.39
2018-04-06T08:30:55.379Z,11.37
2018-04-06T09:05:39.213Z,10.84
2018-04-06T09:06:39.209Z,10.86
2018-04-06T09:07:39.203Z,10.88
2018-04-06T10:19:48.427Z,12.68
2018-04-06T10:33:54.826Z,12.28
2018-04-06T10:43:12.759Z,13.33
2018-04-06T10:47:28.540Z,13.39
2018-04-06T10:50:59.235Z,13.14
2018-04-06T10:55:11.021Z,13.36
2018-04-06T10:58:02.433Z,13.91
2018-04-06T10:59:02.431Z,13.89
2018-04-06T11:00:44.845Z,14.09
2018-04-06T11:03:39.708Z,12.49
2018-04-06T11:09:31.089Z,13.44
2018-04-06T11:10:31.085Z,13.38
2018-04-06T11:14:56.773Z,14.21
2018-04-06T11:21:12.454Z,13.62
2018-04-06T11:25:23.230Z,13.29
2018-04-06T11:32:39.842Z,12.97
2018-04-06T11:35:22.253Z,13.15
2018-04-06T11:36:22.251Z,13.45
2018-04-06T11:37:22.249Z,13.70
2018-04-06T11:38:22.245Z,14.12
2018-04-06T11:42:33.020Z,14.45
2018-04-06T11:45:00.520Z,14.86
2018-04-06T11:46:47.938Z,15.21
2018-04-06T11:47:47.936Z,15.47
2018-04-06T11:48:47.935Z,15.32
2018-04-06T11:49:47.938Z,15.47
2018-04-06T11:50:47.934Z,15.49
2018-04-06T11:51:47.939Z,15.75
2018-04-06T11:52:47.931Z,15.90
2018-04-06T11:53:47.935Z,15.76
2018-04-06T11:54:47.934Z,15.32
2018-04-06T11:55:47.932Z,15.23
2018-04-06T11:56:47.932Z,15.36
2018-04-06T11:57:47.932Z,15.14
2018-04-06T11:58:47.931Z,15.17
2018-04-06T11:59:47.947Z,15.29
2018-04-06T12:00:47.932Z,15.47
2018-04-06T12:01:47.933Z,15.56
2018-04-06T12:02:47.934Z,15.16
2018-04-06T12:03:47.931Z,14.46
2018-04-06T12:04:47.932Z,14.40
2018-04-06T12:05:47.933Z,14.45
2018-04-06T12:06:47.933Z,14.70
2018-04-06T12:07:47.969Z,14.69
2018-04-06T12:08:48.035Z,14.47
2018-04-06T12:09:47.933Z,14.83
2018-04-06T12:10:47.933Z,15.23
2018-04-06T12:11:47.935Z,14.98
2018-04-06T12:12:47.934Z,14.98
2018-04-06T12:13:47.934Z,15.34
2018-04-06T12:14:47.935Z,15.19
2018-04-06T12:15:47.936Z,14.80
2018-04-06T12:16:47.984Z,15.16
2018-04-06T12:17:47.936Z,15.19
2018-04-06T12:18:47.937Z,15.57
2018-04-06T12:24:01.930Z,16.01
2018-04-06T12:25:01.937Z,15.78
2018-04-06T12:26:01.931Z,15.89
2018-04-06T12:27:01.934Z,16.25
2018-04-06T12:28:01.935Z,16.42
2018-04-06T12:29:01.934Z,16.96
2018-04-06T12:30:01.943Z,16.46
2018-04-06T12:31:01.938Z,15.75
2018-04-06T12:32:01.946Z,14.99
2018-04-06T12:33:01.938Z,15.14
2018-04-06T12:34:01.941Z,15.36
2018-04-06T12:35:01.943Z,15.94
2018-04-06T12:36:01.949Z,16.25
2018-04-06T12:37:01.944Z,16.52
2018-04-06T12:38:01.946Z,17.00
2018-04-06T12:39:01.949Z,17.08
2018-04-06T12:40:01.950Z,17.30
2018-04-06T12:41:01.951Z,18.05
2018-04-06T12:48:41.719Z,18.91
2018-04-06T12:50:26.560Z,19.00
2018-04-06T12:51:27.382Z,18.92
2018-04-06T12:53:35.818Z,18.32
2018-04-06T12:54:35.824Z,18.70
2018-04-06T12:57:45.758Z,18.80
2018-04-06T12:59:33.191Z,18.02
2018-04-06T13:00:33.198Z,18.32
2018-04-06T13:01:33.203Z,18.57
2018-04-06T13:03:40.676Z,19.41
2018-04-06T13:04:43.305Z,19.26
2018-04-06T13:06:40.761Z,19.55
2018-04-06T13:10:08.867Z,18.84
2018-04-06T13:13:44.606Z,17.28
2018-04-06T13:28:01.881Z,18.47
2018-04-06T13:29:04.100Z,18.70
2018-04-06T13:30:05.325Z,18.65
2018-04-06T13:49:53.474Z,17.72
2018-04-06T13:54:35.122Z,18.10
2018-04-06T13:57:12.657Z,17.56
2018-04-06T14:03:54.184Z,17.33
2018-04-06T14:04:56.811Z,17.34
2018-04-06T14:06:56.821Z,17.23
2018-04-06T14:08:41.835Z,17.33
2018-04-06T14:18:35.544Z,16.41
2018-04-06T14:19:38.172Z,16.52
2018-04-06T14:20:38.421Z,16.88
2018-04-06T14:22:48.038Z,16.85
2018-04-06T14:29:38.497Z,16.09
2018-04-06T14:38:23.335Z,16.42
2018-04-06T14:42:28.375Z,16.71
2018-04-06T14:43:28.374Z,16.79
2018-04-06T14:44:28.369Z,16.76
2018-04-06T14:57:24.733Z,16.64
2018-04-06T14:59:12.159Z,16.61
2018-04-06T15:00:12.157Z,16.56
2018-04-06T15:03:37.857Z,16.48
2018-04-06T15:04:37.857Z,16.46
2018-04-06T15:05:37.856Z,16.53
2018-04-06T15:06:37.856Z,16.43
2018-04-06T15:07:37.861Z,16.34
2018-04-06T15:21:28.260Z,16.05
2018-04-06T15:23:25.704Z,16.34
2018-04-06T15:24:25.701Z,16.33
2018-04-06T15:25:25.765Z,16.38
2018-04-06T15:30:34.743Z,16.39
2018-04-06T15:34:00.374Z,16.42
2018-04-06T15:35:00.385Z,16.41
2018-04-06T15:38:26.071Z,16.41
2018-04-06T15:40:28.520Z,16.48
2018-04-06T15:41:28.523Z,16.64
2018-04-06T15:42:28.535Z,16.41
2018-04-06T15:43:28.521Z,16.38
2018-04-06T15:44:28.533Z,16.42
2018-04-06T15:45:28.519Z,16.38
2018-04-06T15:46:28.518Z,16.39
2018-04-06T15:47:28.519Z,16.41
2018-04-06T15:48:28.578Z,16.42
2018-04-06T15:49:28.517Z,16.34
2018-04-06T15:50:28.518Z,16.42
2018-04-06T15:51:28.528Z,16.30
2018-04-06T15:52:28.516Z,16.27
2018-04-06T15:53:28.516Z,16.21
2018-04-06T15:54:28.516Z,16.23
2018-04-06T15:55:31.119Z,16.17
2018-04-06T15:56:28.518Z,16.23
2018-04-06T15:57:28.515Z,16.25
2018-04-06T15:58:28.514Z,16.35
2018-04-06T15:59:28.512Z,16.42
2018-04-06T16:00:28.513Z,16.39
2018-04-06T16:01:28.513Z,16.43
2018-04-06T16:02:28.512Z,16.38
2018-04-06T16:03:28.512Z,16.34
2018-04-06T16:04:28.511Z,16.24
2018-04-06T16:05:28.511Z,16.07
2018-04-06T16:06:28.510Z,16.07
2018-04-06T16:07:28.513Z,16.15
2018-04-06T16:08:28.509Z,16.12
2018-04-06T16:09:28.508Z,16.21
2018-04-06T16:10:28.508Z,16.23
2018-04-06T16:11:28.508Z,16.20
2018-04-06T16:12:28.510Z,16.15
2018-04-06T16:13:28.509Z,16.25
2018-04-06T16:14:28.506Z,16.23
2018-04-06T16:15:28.507Z,16.27
2018-04-06T16:16:28.504Z,16.38
2018-04-06T16:17:28.503Z,16.35
2018-04-06T16:18:28.540Z,16.34
2018-04-06T16:19:28.502Z,16.28
2018-04-06T16:20:28.527Z,16.27
2018-04-06T16:21:28.501Z,16.14
2018-04-06T16:22:28.500Z,16.15
2018-04-06T16:23:28.500Z,16.08
2018-04-06T16:24:28.497Z,16.12
2018-04-06T16:25:28.501Z,16.14
2018-04-06T16:26:28.501Z,16.15
2018-04-06T16:27:28.498Z,16.20
2018-04-06T16:28:28.497Z,16.14
2018-04-06T16:29:28.495Z,16.17
2018-04-06T16:30:28.494Z,16.09
2018-04-06T16:31:28.498Z,15.96
2018-04-06T16:32:28.493Z,16.08
2018-04-06T16:33:28.492Z,16.02
2018-04-06T16:34:28.491Z,15.96
2018-04-06T16:35:28.491Z,15.93
2018-04-06T16:36:28.490Z,15.90
2018-04-06T16:37:28.490Z,15.82
2018-04-06T16:38:28.489Z,15.78
2018-04-06T16:39:28.487Z,15.82
2018-04-06T16:40:28.486Z,15.83
2018-04-06T16:41:28.483Z,15.86
2018-04-06T16:42:28.488Z,15.76
2018-04-06T16:43:28.483Z,15.78
2018-04-06T16:44:28.480Z,15.78
2018-04-06T16:45:28.479Z,15.80
2018-04-06T16:46:28.479Z,15.82
2018-04-06T16:47:28.479Z,15.74
2018-04-06T16:48:28.477Z,15.76
2018-04-06T16:49:28.476Z,15.64
2018-04-06T16:50:28.475Z,15.65
2018-04-06T16:51:28.475Z,15.69
2018-04-06T16:52:28.473Z,15.65
2018-04-06T20:25:17.609Z,12.37
2018-04-06T20:26:17.606Z,12.24
2018-04-06T20:27:17.603Z,12.21
2018-04-06T20:28:17.637Z,12.28
2018-04-06T20:29:17.595Z,12.32
2018-04-06T20:30:17.590Z,12.29
2018-04-06T20:31:17.586Z,12.24
2018-04-06T20:32:17.581Z,12.29
2018-04-06T20:33:17.578Z,12.24
2018-04-06T20:34:17.776Z,12.28
2018-04-06T20:35:17.571Z,12.23
2018-04-06T20:36:17.567Z,12.34
2018-04-06T20:55:12.733Z,11.98
2018-04-06T20:58:48.431Z,11.86
2018-04-06T20:59:48.629Z,11.85
2018-04-06T21:10:07.213Z,11.70
2018-04-06T21:11:07.209Z,11.65
2018-04-06T21:14:32.912Z,11.64
2018-04-06T21:15:32.987Z,11.58
2018-04-06T21:16:32.882Z,11.60
2018-04-06T21:17:32.878Z,11.46
2018-04-06T21:18:32.875Z,11.47
2018-04-06T21:19:32.872Z,11.44
2018-04-06T21:20:32.865Z,11.47
2018-04-06T21:21:32.861Z,11.36
2018-04-06T21:22:32.857Z,11.46
2018-04-06T21:45:54.557Z,10.99
2018-04-06T21:46:54.553Z,10.97
2018-04-06T21:47:54.549Z,10.94
2018-04-06T21:48:54.545Z,10.91
2018-04-06T21:49:54.540Z,10.91
2018-04-06T21:50:54.535Z,10.92
2018-04-06T21:51:54.532Z,10.86
2018-04-06T21:52:54.526Z,10.84
2018-04-06T21:53:54.523Z,10.88
2018-04-06T21:54:54.518Z,10.84
2018-04-06T21:55:54.513Z,10.78
2018-04-06T21:56:54.510Z,10.81
2018-04-06T21:57:54.505Z,10.73
2018-04-06T21:58:54.500Z,10.71
2018-04-06T21:59:54.495Z,10.73
2018-04-06T22:00:54.491Z,10.68
2018-04-06T22:01:54.487Z,10.67
2018-04-06T22:02:54.480Z,10.68
2018-04-06T22:03:54.477Z,10.59
2018-04-06T22:04:54.472Z,10.60
2018-04-06T22:05:54.469Z,10.61
2018-04-06T22:06:54.464Z,10.56
2018-04-06T22:07:54.459Z,10.60
2018-04-06T22:08:54.455Z,10.53
2018-04-06T22:09:54.459Z,10.48
2018-04-06T22:10:54.447Z,10.51
2018-04-06T22:11:54.444Z,10.51
2018-04-06T22:12:54.436Z,10.36
2018-04-06T22:13:54.432Z,10.36
2018-04-06T22:14:54.427Z,10.42
2018-04-06T22:15:54.426Z,10.42
2018-04-06T22:16:54.418Z,10.36
2018-04-06T22:17:54.413Z,10.33
2018-04-06T22:18:54.407Z,10.27
2018-04-06T22:19:54.403Z,10.30
2018-04-06T22:20:54.398Z,10.30
2018-04-06T22:21:54.394Z,10.33
2018-04-06T22:22:54.389Z,10.38
2018-04-06T22:23:54.383Z,10.30
2018-04-06T22:24:54.380Z,10.23
2018-04-06T22:25:54.379Z,10.26
2018-04-06T22:26:54.370Z,10.32
2018-04-06T22:27:54.367Z,10.27
2018-04-06T22:28:54.361Z,10.22
2018-04-06T22:29:54.356Z,10.20
2018-04-06T22:30:54.353Z,10.22
2018-04-06T22:31:54.345Z,10.18
2018-04-06T22:32:54.342Z,10.15
2018-04-06T22:33:54.336Z,10.09
2018-04-06T22:34:54.331Z,10.14
2018-04-06T22:35:54.325Z,10.09
2018-04-06T22:36:54.322Z,10.11
2018-04-06T22:37:54.316Z,10.05
2018-04-06T22:38:54.311Z,10.04
2018-04-06T22:39:54.306Z,10.05
2018-04-06T22:40:54.302Z,10.05
2018-04-06T22:41:54.296Z,10.05
2018-04-06T22:42:54.291Z,9.94
2018-04-06T22:43:54.286Z,10.02
2018-04-06T22:44:54.282Z,9.97
2018-04-06T22:45:54.282Z,10.05
2018-04-06T22:46:54.271Z,10.01
2018-04-06T22:47:54.267Z,9.99
2018-04-06T22:48:54.262Z,10.01
2018-04-06T22:49:54.256Z,10.01
2018-04-06T23:14:59.209Z,9.76
2018-04-06T23:15:59.215Z,9.74
2018-04-06T23:16:59.196Z,9.75
2018-04-06T23:17:59.190Z,9.78
2018-04-06T23:18:59.185Z,9.72
2018-04-06T23:19:59.184Z,9.74
2018-04-06T23:20:59.177Z,9.72
2018-04-06T23:21:59.169Z,9.69
2018-04-06T23:22:59.163Z,9.75
2018-04-06T23:23:59.158Z,9.76
2018-04-06T23:24:59.154Z,9.74
2018-04-06T23:25:59.152Z,9.66
2018-04-06T23:26:59.142Z,9.72
2018-04-06T23:27:59.136Z,9.76
2018-04-06T23:28:59.131Z,9.76
2018-04-06T23:29:59.126Z,9.71
2018-04-06T23:30:59.122Z,9.74
2018-04-06T23:31:59.120Z,9.74
2018-04-06T23:32:59.111Z,9.72
2018-04-06T23:33:59.106Z,9.64
2018-04-06T23:34:59.115Z,9.66
2018-04-06T23:35:59.095Z,9.58
2018-04-06T23:36:59.089Z,9.58
2018-04-06T23:37:59.086Z,9.56
2018-04-06T23:38:59.084Z,9.58
2018-04-06T23:39:59.074Z,9.58
2018-04-06T23:40:59.071Z,9.60
2018-04-06T23:41:59.064Z,9.61
2018-04-06T23:42:59.058Z,9.56
2018-04-06T23:43:59.053Z,9.50
2018-04-06T23:44:59.050Z,9.50
2018-04-06T23:45:59.047Z,9.54
2018-04-06T23:46:59.040Z,9.51
2018-04-06T23:47:59.035Z,9.42
2018-04-06T23:48:59.027Z,9.43
2018-04-06T23:49:59.022Z,9.40
2018-04-06T23:50:59.017Z,9.43
2018-04-06T23:51:59.014Z,9.43
2018-04-06T23:52:59.006Z,9.36
2018-04-06T23:53:59.001Z,9.36
2018-04-06T23:54:58.995Z,9.40
2018-04-06T23:55:58.989Z,9.46
2018-04-06T23:56:58.985Z,9.42
2018-04-06T23:57:58.979Z,9.39
2018-04-06T23:58:58.977Z,9.40
2018-04-06T23:59:58.968Z,9.39
